createdAt,value
2019-03-30T00:01:05.113Z,101294.05
2019-03-30T00:02:11.051Z,101297.28
2019-03-30T00:03:15.731Z,101293.72
2019-03-30T00:04:20.342Z,101292.86
2019-03-30T00:05:25.038Z,101299.61
2019-03-30T00:06:29.913Z,101295.13
2019-03-30T00:07:34.672Z,101292.42
2019-03-30T00:08:39.034Z,101287.05
2019-03-30T00:09:43.725Z,101288.03
2019-03-30T00:10:48.584Z,101286.25
2019-03-30T00:11:53.451Z,101284.90
2019-03-30T00:12:58.213Z,101288.09
2019-03-30T00:14:03.071Z,101285.39
2019-03-30T00:15:07.860Z,101285.88
2019-03-30T00:16:12.812Z,101290.85
2019-03-30T00:17:17.914Z,101293.55
2019-03-30T00:18:22.356Z,101292.72
2019-03-30T00:19:34.823Z,101294.56
2019-03-30T00:20:33.193Z,101285.59
2019-03-30T00:21:37.887Z,101289.19
2019-03-30T00:22:42.837Z,101290.14
2019-03-30T00:23:47.516Z,101289.31
2019-03-30T00:24:52.467Z,101290.23
2019-03-30T00:25:57.234Z,101288.05
2019-03-30T00:27:01.942Z,101291.20
2019-03-30T00:28:06.711Z,101293.47
2019-03-30T00:29:11.674Z,101289.88
2019-03-30T00:30:19.010Z,101284.54
2019-03-30T00:31:22.363Z,101292.27
2019-03-30T00:32:26.978Z,101291.03
2019-03-30T00:33:31.595Z,101285.66
2019-03-30T00:34:36.115Z,101291.11
2019-03-30T00:35:40.561Z,101289.33
2019-03-30T00:36:45.427Z,101290.77
2019-03-30T00:37:50.348Z,101297.95
2019-03-30T00:38:55.209Z,101293.04
2019-03-30T00:39:59.807Z,101295.30
2019-03-30T00:41:04.999Z,101290.82
2019-03-30T00:42:09.911Z,101290.39
2019-03-30T00:43:14.599Z,101287.72
2019-03-30T00:44:19.201Z,101286.42
2019-03-30T00:45:23.962Z,101285.08
2019-03-30T00:46:28.400Z,101284.64
2019-03-30T00:47:32.858Z,101278.81
2019-03-30T00:48:37.788Z,101283.31
2019-03-30T00:49:48.970Z,101280.59
2019-03-30T00:50:49.061Z,101282.40
2019-03-30T00:51:53.767Z,101277.52
2019-03-30T00:52:58.636Z,101282.48
2019-03-30T00:54:03.325Z,101286.16
2019-03-30T00:55:08.415Z,101288.91
2019-03-30T00:56:13.337Z,101282.19
2019-03-30T00:57:17.946Z,101284.88
2019-03-30T00:58:25.508Z,101282.64
2019-03-30T00:59:29.044Z,101284.45
2019-03-30T01:00:33.888Z,101292.55
2019-03-30T01:01:38.547Z,101292.16
2019-03-30T01:02:43.318Z,101291.26
2019-03-30T01:03:47.767Z,101283.62
2019-03-30T01:04:52.444Z,101283.19
2019-03-30T01:05:58.329Z,101285.45
2019-03-30T01:07:03.849Z,101287.72
2019-03-30T01:08:08.636Z,101289.53
2019-03-30T01:09:13.010Z,101287.28
2019-03-30T01:10:17.540Z,101286.02
2019-03-30T01:11:22.803Z,101283.31
2019-03-30T01:12:27.750Z,101281.53
2019-03-30T01:13:32.676Z,101278.43
2019-03-30T01:14:37.038Z,101277.11
2019-03-30T01:15:41.551Z,101278.53
2019-03-30T01:16:46.242Z,101274.48
2019-03-30T01:17:50.725Z,101281.23
2019-03-30T01:18:55.424Z,101283.06
2019-03-30T01:20:03.040Z,101279.48
2019-03-30T01:21:06.035Z,101277.26
2019-03-30T01:22:11.078Z,101275.91
2019-03-30T01:23:15.768Z,101275.02
2019-03-30T01:24:20.499Z,101276.39
2019-03-30T01:25:25.442Z,101276.85
2019-03-30T01:26:30.456Z,101276.45
2019-03-30T01:27:35.072Z,101271.97
2019-03-30T01:28:39.750Z,101274.23
2019-03-30T01:29:44.678Z,101276.50
2019-03-30T01:30:49.367Z,101277.41
2019-03-30T01:31:54.139Z,101273.83
2019-03-30T01:32:58.917Z,101270.27
2019-03-30T01:34:03.606Z,101274.36
2019-03-30T01:35:08.787Z,101275.72
2019-03-30T01:36:13.517Z,101272.58
2019-03-30T01:37:18.386Z,101274.84
2019-03-30T01:38:23.005Z,101279.80
2019-03-30T01:39:28.115Z,101276.67
2019-03-30T01:40:32.794Z,101276.23
2019-03-30T01:41:37.493Z,101274.45
2019-03-30T01:42:42.434Z,101273.56
2019-03-30T01:43:47.344Z,101270.92
2019-03-30T01:44:52.000Z,101277.67
2019-03-30T01:45:56.437Z,101270.06
2019-03-30T01:47:01.213Z,101270.97
2019-03-30T01:48:06.294Z,101267.41
2019-03-30T01:49:11.063Z,101259.80
2019-03-30T01:50:17.734Z,101265.64
2019-03-30T01:51:22.007Z,101259.39
2019-03-30T01:52:26.955Z,101261.66
2019-03-30T01:53:31.327Z,101255.39
2019-03-30T01:54:35.762Z,101255.84
2019-03-30T01:55:40.443Z,101259.92
2019-03-30T01:56:45.173Z,101258.57
2019-03-30T01:57:50.030Z,101257.70
2019-03-30T01:58:54.480Z,101258.57
2019-03-30T01:59:59.092Z,101255.89
2019-03-30T02:01:04.271Z,101249.23
2019-03-30T02:02:08.707Z,101251.06
2019-03-30T02:03:13.806Z,101244.77
2019-03-30T02:04:18.508Z,101248.43
2019-03-30T02:05:23.266Z,101247.48
2019-03-30T02:06:27.875Z,101241.62
2019-03-30T02:07:32.489Z,101243.95
2019-03-30T02:08:37.019Z,101245.78
2019-03-30T02:09:41.634Z,101243.56
2019-03-30T02:10:46.821Z,101238.64
2019-03-30T02:11:51.511Z,101240.94
2019-03-30T02:12:55.868Z,101240.07
2019-03-30T02:14:00.499Z,101244.14
2019-03-30T02:15:05.985Z,101246.83
2019-03-30T02:16:10.849Z,101242.81
2019-03-30T02:17:15.377Z,101239.68
2019-03-30T02:18:20.072Z,101247.33
2019-03-30T02:19:24.867Z,101247.33
2019-03-30T02:20:38.443Z,101244.23
2019-03-30T02:21:43.144Z,101246.50
2019-03-30T02:22:47.756Z,101243.34
2019-03-30T02:23:52.708Z,101247.84
2019-03-30T02:24:57.482Z,101248.76
2019-03-30T02:26:01.850Z,101245.62
2019-03-30T02:27:06.377Z,101244.28
2019-03-30T02:28:10.893Z,101243.39
2019-03-30T02:29:15.516Z,101247.43
2019-03-30T02:30:20.117Z,101242.95
2019-03-30T02:31:24.551Z,101244.31
2019-03-30T02:32:28.997Z,101242.99
2019-03-30T02:33:33.676Z,101247.53
2019-03-30T02:34:38.050Z,101248.44
2019-03-30T02:35:43.133Z,101249.34
2019-03-30T02:36:48.001Z,101243.52
2019-03-30T02:37:52.653Z,101247.11
2019-03-30T02:38:57.135Z,101245.34
2019-03-30T02:40:01.741Z,101248.05
2019-03-30T02:41:06.344Z,101244.02
2019-03-30T02:42:10.956Z,101239.09
2019-03-30T02:43:15.378Z,101240.95
2019-03-30T02:44:20.261Z,101240.97
2019-03-30T02:45:24.702Z,101238.29
2019-03-30T02:46:29.307Z,101240.11
2019-03-30T02:47:34.154Z,101239.20
2019-03-30T02:48:38.764Z,101237.39
2019-03-30T02:49:43.449Z,101234.34
2019-03-30T02:50:50.606Z,101234.38
2019-03-30T02:51:55.134Z,101239.31
2019-03-30T02:53:00.060Z,101232.61
2019-03-30T02:54:04.828Z,101234.42
2019-03-30T02:55:12.605Z,101234.47
2019-03-30T02:56:16.012Z,101234.52
2019-03-30T02:57:20.367Z,101238.58
2019-03-30T02:58:25.377Z,101236.80
2019-03-30T02:59:29.760Z,101236.81
2019-03-30T03:00:34.609Z,101237.75
2019-03-30T03:01:38.977Z,101237.31
2019-03-30T03:02:43.658Z,101233.71
2019-03-30T03:03:48.346Z,101236.86
2019-03-30T03:04:52.879Z,101230.58
2019-03-30T03:05:57.812Z,101231.49
2019-03-30T03:07:02.739Z,101234.66
2019-03-30T03:08:07.109Z,101230.63
2019-03-30T03:09:11.611Z,101229.27
2019-03-30T03:10:16.519Z,101227.94
2019-03-30T03:11:21.033Z,101233.33
2019-03-30T03:12:25.723Z,101233.33
2019-03-30T03:13:30.496Z,101230.64
2019-03-30T03:14:35.179Z,101231.09
2019-03-30T03:15:39.871Z,101227.96
2019-03-30T03:16:44.704Z,101222.58
2019-03-30T03:17:49.143Z,101224.43
2019-03-30T03:18:53.590Z,101223.98
2019-03-30T03:19:58.540Z,101212.45
2019-03-30T03:21:08.075Z,101223.13
2019-03-30T03:22:09.894Z,101224.48
2019-03-30T03:23:14.649Z,101217.75
2019-03-30T03:24:19.017Z,101222.70
2019-03-30T03:25:23.723Z,101219.12
2019-03-30T03:26:28.164Z,101218.22
2019-03-30T03:27:32.920Z,101216.48
2019-03-30T03:28:37.357Z,101209.20
2019-03-30T03:29:43.916Z,101213.69
2019-03-30T03:30:48.611Z,101211.49
2019-03-30T03:31:53.225Z,101216.97
2019-03-30T03:32:57.588Z,101217.44
2019-03-30T03:34:02.185Z,101213.03
2019-03-30T03:35:06.857Z,101218.89
2019-03-30T03:36:11.288Z,101212.16
2019-03-30T03:37:16.051Z,101218.89
2019-03-30T03:38:20.417Z,101218.00
2019-03-30T03:39:25.114Z,101217.09
2019-03-30T03:40:29.799Z,101222.93
2019-03-30T03:41:34.475Z,101216.63
2019-03-30T03:42:38.917Z,101222.93
2019-03-30T03:43:43.673Z,101216.67
2019-03-30T03:44:48.541Z,101218.45
2019-03-30T03:45:53.229Z,101218.91
2019-03-30T03:46:57.833Z,101220.73
2019-03-30T03:48:02.592Z,101221.67
2019-03-30T03:49:07.037Z,101226.60
2019-03-30T03:50:25.701Z,101218.55
2019-03-30T03:51:30.560Z,101225.27
2019-03-30T03:52:35.266Z,101224.38
2019-03-30T03:53:39.806Z,101220.80
2019-03-30T03:54:46.094Z,101219.91
2019-03-30T03:55:50.830Z,101227.98
2019-03-30T03:56:56.158Z,101223.50
2019-03-30T03:58:01.890Z,101224.41
2019-03-30T03:59:08.104Z,101222.63
2019-03-30T04:00:12.886Z,101219.94
2019-03-30T04:01:20.009Z,101220.45
2019-03-30T04:02:25.986Z,101220.45
2019-03-30T04:03:33.693Z,101218.66
2019-03-30T04:04:39.789Z,101212.41
2019-03-30T04:05:47.075Z,101215.11
2019-03-30T04:06:52.211Z,101213.34
2019-03-30T04:07:59.207Z,101214.69
2019-03-30T04:09:05.999Z,101222.36
2019-03-30T04:10:10.865Z,101219.23
2019-03-30T04:11:16.260Z,101219.69
2019-03-30T04:12:23.568Z,101222.38
2019-03-30T04:13:30.185Z,101219.25
2019-03-30T04:14:37.767Z,101215.66
2019-03-30T04:15:42.297Z,101217.45
2019-03-30T04:16:46.741Z,101210.73
2019-03-30T04:17:51.674Z,101208.50
2019-03-30T04:18:56.115Z,101219.70
2019-03-30T04:20:01.049Z,101217.03
2019-03-30T04:21:05.504Z,101213.45
2019-03-30T04:22:10.117Z,101213.44
2019-03-30T04:23:14.645Z,101214.34
2019-03-30T04:24:19.252Z,101212.16
2019-03-30T04:25:24.184Z,101216.20
2019-03-30T04:26:29.048Z,101218.89
2019-03-30T04:27:33.905Z,101215.76
2019-03-30T04:28:38.516Z,101219.34
2019-03-30T04:29:43.130Z,101221.14
2019-03-30T04:30:47.831Z,101222.05
2019-03-30T04:31:52.439Z,101216.57
2019-03-30T04:32:57.361Z,101215.70
2019-03-30T04:34:01.723Z,101216.16
2019-03-30T04:35:06.953Z,101215.35
2019-03-30T04:36:11.596Z,101216.25
2019-03-30T04:37:16.465Z,101220.23
2019-03-30T04:38:21.324Z,101215.80
2019-03-30T04:39:25.764Z,101219.84
2019-03-30T04:40:30.287Z,101218.52
2019-03-30T04:41:34.787Z,101218.50
2019-03-30T04:42:39.725Z,101215.88
2019-03-30T04:43:44.335Z,101214.92
2019-03-30T04:44:48.776Z,101217.67
2019-03-30T04:45:53.471Z,101212.77
2019-03-30T04:46:58.335Z,101215.02
2019-03-30T04:48:03.026Z,101209.19
2019-03-30T04:49:07.992Z,101205.17
2019-03-30T04:50:12.660Z,101208.77
2019-03-30T04:51:17.038Z,101210.53
2019-03-30T04:52:21.719Z,101207.42
2019-03-30T04:53:26.082Z,101201.63
2019-03-30T04:54:31.184Z,101204.78
2019-03-30T04:55:35.896Z,101204.34
2019-03-30T04:56:40.274Z,101200.30
2019-03-30T04:57:44.635Z,101206.16
2019-03-30T04:58:49.241Z,101205.25
2019-03-30T04:59:53.691Z,101204.81
2019-03-30T05:00:58.872Z,101211.54
2019-03-30T05:02:03.576Z,101209.75
2019-03-30T05:03:08.263Z,101205.28
2019-03-30T05:04:13.170Z,101207.97
2019-03-30T05:05:17.923Z,101205.28
2019-03-30T05:06:22.871Z,101202.59
2019-03-30T05:07:27.788Z,101203.93
2019-03-30T05:08:32.232Z,101200.80
2019-03-30T05:09:36.838Z,101199.45
2019-03-30T05:10:41.277Z,101200.80
2019-03-30T05:11:46.397Z,101197.70
2019-03-30T05:12:51.014Z,101205.30
2019-03-30T05:13:55.708Z,101202.65
2019-03-30T05:15:00.648Z,101199.50
2019-03-30T05:16:05.595Z,101202.60
2019-03-30T05:17:10.368Z,101197.70
2019-03-30T05:18:15.231Z,101195.47
2019-03-30T05:19:19.851Z,101199.05
2019-03-30T05:20:24.368Z,101201.30
2019-03-30T05:21:28.744Z,101196.83
2019-03-30T05:22:33.178Z,101202.65
2019-03-30T05:23:37.943Z,101202.65
2019-03-30T05:24:42.560Z,101200.87
2019-03-30T05:25:47.255Z,101201.74
2019-03-30T05:26:51.704Z,101201.32
2019-03-30T05:27:56.643Z,101199.52
2019-03-30T05:29:01.345Z,101196.84
2019-03-30T05:30:06.888Z,101206.25
2019-03-30T05:31:11.644Z,101201.76
2019-03-30T05:32:16.354Z,101204.44
2019-03-30T05:33:21.580Z,101204.45
2019-03-30T05:34:26.288Z,101208.03
2019-03-30T05:35:30.652Z,101202.65
2019-03-30T05:36:35.111Z,101202.20
2019-03-30T05:37:39.799Z,101200.85
2019-03-30T05:38:44.160Z,101206.23
2019-03-30T05:39:49.023Z,101208.92
2019-03-30T05:40:53.963Z,101212.06
2019-03-30T05:41:58.420Z,101207.13
2019-03-30T05:43:03.523Z,101208.88
2019-03-30T05:44:08.710Z,101210.20
2019-03-30T05:45:13.334Z,101206.61
2019-03-30T05:46:18.272Z,101211.54
2019-03-30T05:47:23.310Z,101207.94
2019-03-30T05:48:27.999Z,101208.81
2019-03-30T05:49:32.862Z,101206.13
2019-03-30T05:50:37.870Z,101216.84
2019-03-30T05:51:42.992Z,101216.89
2019-03-30T05:52:47.751Z,101216.83
2019-03-30T05:53:52.187Z,101217.27
2019-03-30T05:54:57.048Z,101214.14
2019-03-30T05:56:01.466Z,101217.69
2019-03-30T05:57:05.788Z,101219.47
2019-03-30T05:58:10.732Z,101212.19
2019-03-30T05:59:15.607Z,101220.27
2019-03-30T06:00:22.424Z,101223.05
2019-03-30T06:01:27.121Z,101218.16
2019-03-30T06:02:31.746Z,101217.70
2019-03-30T06:03:36.355Z,101218.61
2019-03-30T06:04:40.720Z,101213.30
2019-03-30T06:05:45.325Z,101219.52
2019-03-30T06:06:50.274Z,101217.27
2019-03-30T06:07:54.988Z,101224.88
2019-03-30T06:08:59.675Z,101216.33
2019-03-30T06:10:04.367Z,101219.41
2019-03-30T06:11:09.055Z,101222.05
2019-03-30T06:12:13.927Z,101221.61
2019-03-30T06:13:18.547Z,101223.84
2019-03-30T06:14:23.158Z,101219.30
2019-03-30T06:15:28.267Z,101216.59
2019-03-30T06:16:33.570Z,101215.22
2019-03-30T06:17:38.027Z,101216.54
2019-03-30T06:18:43.171Z,101210.20
2019-03-30T06:19:48.023Z,101218.70
2019-03-30T06:20:52.639Z,101215.46
2019-03-30T06:21:57.263Z,101213.61
2019-03-30T06:23:01.706Z,101215.27
2019-03-30T06:24:06.148Z,101213.33
2019-03-30T06:25:10.986Z,101208.62
2019-03-30T06:26:15.741Z,101203.96
2019-03-30T06:27:20.370Z,101203.73
2019-03-30T06:28:25.226Z,101203.09
2019-03-30T06:29:29.834Z,101204.32
2019-03-30T06:30:34.514Z,101204.13
2019-03-30T06:31:39.452Z,101209.42
2019-03-30T06:32:44.482Z,101202.09
2019-03-30T06:33:48.921Z,101204.75
2019-03-30T06:34:53.524Z,101205.05
2019-03-30T06:35:57.894Z,101206.73
2019-03-30T06:37:02.347Z,101201.16
2019-03-30T06:38:06.783Z,101201.00
2019-03-30T06:39:11.395Z,101197.70
2019-03-30T06:40:17.391Z,101200.27
2019-03-30T06:41:21.832Z,101203.75
2019-03-30T06:42:26.207Z,101200.05
2019-03-30T06:43:30.888Z,101201.74
2019-03-30T06:44:35.495Z,101197.12
2019-03-30T06:45:40.439Z,101193.38
2019-03-30T06:46:45.133Z,101196.43
2019-03-30T06:47:50.179Z,101188.66
2019-03-30T06:48:54.543Z,101196.16
2019-03-30T06:49:59.165Z,101196.41
2019-03-30T06:51:03.536Z,101196.37
2019-03-30T06:52:08.229Z,101194.48
2019-03-30T06:53:12.929Z,101194.41
2019-03-30T06:54:17.864Z,101198.92
2019-03-30T06:55:22.564Z,101193.98
2019-03-30T06:56:27.255Z,101193.52
2019-03-30T06:57:31.644Z,101200.80
2019-03-30T06:58:36.085Z,101199.02
2019-03-30T06:59:40.448Z,101192.76
2019-03-30T07:00:46.476Z,101197.39
2019-03-30T07:01:51.897Z,101195.12
2019-03-30T07:02:57.154Z,101197.02
2019-03-30T07:04:02.608Z,101195.18
2019-03-30T07:05:08.983Z,101198.03
2019-03-30T07:06:15.658Z,101197.66
2019-03-30T07:07:21.139Z,101188.81
2019-03-30T07:08:27.829Z,101204.30
2019-03-30T07:09:33.455Z,101202.20
2019-03-30T07:10:39.277Z,101200.91
2019-03-30T07:11:45.046Z,101201.48
2019-03-30T07:12:52.641Z,101201.91
2019-03-30T07:14:00.307Z,101204.52
2019-03-30T07:15:05.899Z,101198.20
2019-03-30T07:16:12.079Z,101196.08
2019-03-30T07:17:17.425Z,101191.20
2019-03-30T07:18:22.676Z,101197.03
2019-03-30T07:19:30.744Z,101198.30
2019-03-30T07:20:35.762Z,101199.13
2019-03-30T07:21:41.040Z,101198.64
2019-03-30T07:22:46.496Z,101204.06
2019-03-30T07:23:51.451Z,101196.80
2019-03-30T07:24:56.993Z,101195.02
2019-03-30T07:26:03.826Z,101197.14
2019-03-30T07:27:08.484Z,101199.38
2019-03-30T07:28:13.057Z,101195.77
2019-03-30T07:29:17.736Z,101201.57
2019-03-30T07:30:22.517Z,101198.38
2019-03-30T07:31:27.804Z,101200.56
2019-03-30T07:32:32.204Z,101195.14
2019-03-30T07:33:36.643Z,101194.70
2019-03-30T07:34:41.820Z,101191.28
2019-03-30T07:35:46.287Z,101191.34
2019-03-30T07:36:50.950Z,101193.55
2019-03-30T07:37:56.389Z,101192.63
2019-03-30T07:39:00.833Z,101192.94
2019-03-30T07:40:05.562Z,101185.17
2019-03-30T07:41:10.330Z,101193.13
2019-03-30T07:42:15.020Z,101189.53
2019-03-30T07:43:19.467Z,101193.06
2019-03-30T07:44:23.833Z,101197.02
2019-03-30T07:45:28.273Z,101193.83
2019-03-30T07:46:32.888Z,101189.25
2019-03-30T07:47:37.707Z,101191.86
2019-03-30T07:48:42.571Z,101184.52
2019-03-30T07:49:47.053Z,101186.14
2019-03-30T07:50:51.410Z,101182.97
2019-03-30T07:51:56.413Z,101188.09
2019-03-30T07:53:01.653Z,101177.34
2019-03-30T07:54:06.906Z,101172.66
2019-03-30T07:55:11.520Z,101182.84
2019-03-30T07:56:15.969Z,101177.73
2019-03-30T07:57:20.842Z,101179.01
2019-03-30T07:58:25.788Z,101173.83
2019-03-30T07:59:30.228Z,101171.05
2019-03-30T08:00:35.166Z,101170.91
2019-03-30T08:01:39.535Z,101174.61
2019-03-30T08:02:44.078Z,101171.02
2019-03-30T08:03:49.453Z,101167.28
2019-03-30T08:04:54.223Z,101170.38
2019-03-30T08:05:58.667Z,101168.10
2019-03-30T08:07:03.036Z,101166.53
2019-03-30T08:08:07.419Z,101165.42
2019-03-30T08:09:11.941Z,101164.97
2019-03-30T08:10:16.708Z,101165.17
2019-03-30T08:11:21.652Z,101164.56
2019-03-30T08:12:26.171Z,101163.63
2019-03-30T08:13:30.581Z,101159.50
2019-03-30T08:14:35.043Z,101166.50
2019-03-30T08:15:39.993Z,101154.21
2019-03-30T08:16:44.412Z,101153.63
2019-03-30T08:17:48.805Z,101154.45
2019-03-30T08:18:53.248Z,101154.21
2019-03-30T08:19:57.706Z,101153.20
2019-03-30T08:21:02.684Z,101153.47
2019-03-30T08:22:07.451Z,101158.38
2019-03-30T08:23:12.373Z,101153.62
2019-03-30T08:24:17.809Z,101156.17
2019-03-30T08:25:22.344Z,101152.76
2019-03-30T08:26:27.216Z,101151.31
2019-03-30T08:27:32.507Z,101147.59
2019-03-30T08:28:37.212Z,101152.77
2019-03-30T08:29:42.412Z,101147.91
2019-03-30T08:30:47.181Z,101148.20
2019-03-30T08:31:52.115Z,101153.37
2019-03-30T08:32:57.079Z,101156.84
2019-03-30T08:34:01.835Z,101150.82
2019-03-30T08:35:06.996Z,101150.82
2019-03-30T08:36:11.976Z,101151.92
2019-03-30T08:37:16.436Z,101147.80
2019-03-30T08:38:20.898Z,101139.45
2019-03-30T08:39:25.613Z,101146.39
2019-03-30T08:40:30.503Z,101145.03
2019-03-30T08:41:34.968Z,101143.02
2019-03-30T08:42:39.665Z,101146.45
2019-03-30T08:43:44.370Z,101145.00
2019-03-30T08:44:49.337Z,101141.97
2019-03-30T08:45:53.960Z,101143.23
2019-03-30T08:46:58.333Z,101136.78
2019-03-30T08:48:03.332Z,101135.28
2019-03-30T08:49:08.156Z,101131.08
2019-03-30T08:50:13.740Z,101135.23
2019-03-30T08:51:20.773Z,101129.05
2019-03-30T08:52:24.691Z,101126.66
2019-03-30T08:53:29.320Z,101123.86
2019-03-30T08:54:34.190Z,101124.18
2019-03-30T08:55:39.127Z,101126.13
2019-03-30T08:56:44.001Z,101122.81
2019-03-30T08:57:51.210Z,101117.59
2019-03-30T08:58:55.836Z,101114.49
2019-03-30T09:00:00.531Z,101115.33
2019-03-30T09:01:04.980Z,101114.28
2019-03-30T09:02:09.350Z,101111.00
2019-03-30T09:03:14.376Z,101116.64
2019-03-30T09:04:18.981Z,101107.30
2019-03-30T09:05:23.420Z,101108.03
2019-03-30T09:06:28.108Z,101105.02
2019-03-30T09:07:32.619Z,101104.13
2019-03-30T09:08:37.321Z,101096.75
2019-03-30T09:09:42.277Z,101094.08
2019-03-30T09:10:47.133Z,101095.89
2019-03-30T09:11:51.741Z,101080.80
2019-03-30T09:12:57.674Z,101101.84
2019-03-30T09:14:02.620Z,101095.93
2019-03-30T09:15:08.067Z,101091.32
2019-03-30T09:16:12.518Z,101088.39
2019-03-30T09:17:17.432Z,101093.92
2019-03-30T09:18:21.897Z,101088.95
2019-03-30T09:19:26.417Z,101085.17
2019-03-30T09:20:31.105Z,101077.21
2019-03-30T09:21:35.966Z,101086.14
2019-03-30T09:22:40.409Z,101083.62
2019-03-30T09:23:44.872Z,101081.16
2019-03-30T09:24:49.561Z,101077.09
2019-03-30T09:25:53.940Z,101075.55
2019-03-30T09:26:58.558Z,101078.05
2019-03-30T09:28:03.485Z,101072.73
2019-03-30T09:29:09.305Z,101079.95
2019-03-30T09:30:14.311Z,101074.63
2019-03-30T09:31:19.417Z,101070.84
2019-03-30T09:32:24.604Z,101071.15
2019-03-30T09:33:29.241Z,101071.69
2019-03-30T09:34:34.230Z,101063.98
2019-03-30T09:35:39.519Z,101064.48
2019-03-30T09:36:44.884Z,101062.80
2019-03-30T09:37:49.745Z,101065.23
2019-03-30T09:38:54.479Z,101061.09
2019-03-30T09:39:59.017Z,101058.66
2019-03-30T09:41:03.473Z,101061.69
2019-03-30T09:42:08.343Z,101051.41
2019-03-30T09:43:13.031Z,101051.52
2019-03-30T09:44:17.413Z,101055.59
2019-03-30T09:45:22.031Z,101054.58
2019-03-30T09:46:26.893Z,101047.48
2019-03-30T09:47:31.335Z,101049.42
2019-03-30T09:48:36.196Z,101043.70
2019-03-30T09:49:41.332Z,101048.68
2019-03-30T09:50:45.848Z,101048.56
2019-03-30T09:51:50.545Z,101045.30
2019-03-30T09:52:55.407Z,101041.51
2019-03-30T09:54:00.042Z,101046.09
2019-03-30T09:55:05.031Z,101043.09
2019-03-30T09:56:10.052Z,101047.95
2019-03-30T09:57:14.756Z,101039.31
2019-03-30T09:58:19.281Z,101044.29
2019-03-30T09:59:23.994Z,101041.72
2019-03-30T10:00:29.690Z,101036.92
2019-03-30T10:01:34.560Z,101036.16
2019-03-30T10:02:39.003Z,101030.85
2019-03-30T10:03:43.376Z,101027.31
2019-03-30T10:04:48.281Z,101023.63
2019-03-30T10:05:53.067Z,101031.26
2019-03-30T10:06:57.792Z,101027.57
2019-03-30T10:08:02.386Z,101026.13
2019-03-30T10:09:07.978Z,101024.17
2019-03-30T10:10:12.580Z,101025.79
2019-03-30T10:11:17.278Z,101018.00
2019-03-30T10:12:21.907Z,101011.39
2019-03-30T10:13:26.437Z,101016.14
2019-03-30T10:14:31.146Z,101010.41
2019-03-30T10:15:35.847Z,101014.28
2019-03-30T10:16:40.220Z,101007.59
2019-03-30T10:17:44.677Z,101014.06
2019-03-30T10:18:49.309Z,101005.12
2019-03-30T10:20:04.362Z,101006.66
2019-03-30T10:21:00.540Z,101005.50
2019-03-30T10:22:05.089Z,100997.36
2019-03-30T10:23:09.473Z,101000.17
2019-03-30T10:24:14.128Z,100996.76
2019-03-30T10:25:18.673Z,100998.88
2019-03-30T10:26:23.697Z,101001.73
2019-03-30T10:27:28.572Z,100999.61
2019-03-30T10:28:33.028Z,100994.86
2019-03-30T10:29:37.986Z,100999.00
2019-03-30T10:30:42.687Z,100996.78
2019-03-30T10:31:47.394Z,100992.03
2019-03-30T10:32:52.269Z,100994.00
2019-03-30T10:33:56.720Z,100984.27
2019-03-30T10:35:01.185Z,100983.02
2019-03-30T10:36:05.640Z,100985.49
2019-03-30T10:37:10.273Z,100981.98
2019-03-30T10:38:15.149Z,100979.28
2019-03-30T10:39:20.049Z,100979.98
2019-03-30T10:40:24.506Z,100978.73
2019-03-30T10:41:28.880Z,100974.81
2019-03-30T10:42:33.262Z,100979.95
2019-03-30T10:43:37.717Z,100973.52
2019-03-30T10:44:42.608Z,100973.13
2019-03-30T10:45:47.061Z,100969.70
2019-03-30T10:46:51.829Z,100963.81
2019-03-30T10:47:56.290Z,100966.96
2019-03-30T10:49:00.660Z,100965.20
2019-03-30T10:50:05.941Z,100962.47
2019-03-30T10:51:10.816Z,100958.17
2019-03-30T10:52:15.441Z,100958.84
2019-03-30T10:53:20.130Z,100956.20
2019-03-30T10:54:24.841Z,100954.25
2019-03-30T10:55:29.207Z,100952.61
2019-03-30T10:56:33.910Z,100951.72
2019-03-30T10:57:38.592Z,100948.58
2019-03-30T10:58:43.200Z,100953.97
2019-03-30T10:59:47.987Z,100942.59
2019-03-30T11:00:52.603Z,100945.81
2019-03-30T11:01:57.543Z,100941.91
2019-03-30T11:03:02.324Z,100941.11
2019-03-30T11:04:07.096Z,100939.23
2019-03-30T11:05:11.882Z,100933.16
2019-03-30T11:06:16.580Z,100937.39
2019-03-30T11:07:21.441Z,100930.16
2019-03-30T11:08:25.934Z,100932.67
2019-03-30T11:09:30.313Z,100932.73
2019-03-30T11:10:34.929Z,100929.13
2019-03-30T11:11:39.616Z,100930.86
2019-03-30T11:12:44.230Z,100928.08
2019-03-30T11:13:48.742Z,100926.22
2019-03-30T11:14:53.692Z,100925.11
2019-03-30T11:15:58.699Z,100923.44
2019-03-30T11:17:03.684Z,100920.38
2019-03-30T11:18:08.043Z,100915.96
2019-03-30T11:19:12.652Z,100918.82
2019-03-30T11:20:17.418Z,100911.96
2019-03-30T11:21:22.277Z,100916.37
2019-03-30T11:22:26.641Z,100911.92
2019-03-30T11:23:31.513Z,100899.91
2019-03-30T11:24:36.140Z,100905.48
2019-03-30T11:25:40.769Z,100898.31
2019-03-30T11:26:45.139Z,100899.77
2019-03-30T11:27:49.756Z,100901.58
2019-03-30T11:28:54.200Z,100899.77
2019-03-30T11:29:58.898Z,100897.06
2019-03-30T11:31:05.389Z,100894.89
2019-03-30T11:32:10.065Z,100894.05
2019-03-30T11:33:14.827Z,100892.23
2019-03-30T11:34:19.512Z,100897.02
2019-03-30T11:35:24.534Z,100888.81
2019-03-30T11:36:29.214Z,100888.85
2019-03-30T11:37:33.904Z,100886.67
2019-03-30T11:38:38.267Z,100890.44
2019-03-30T11:39:42.954Z,100887.86
2019-03-30T11:40:47.731Z,100886.24
2019-03-30T11:41:52.334Z,100879.55
2019-03-30T11:42:57.014Z,100880.70
2019-03-30T11:44:01.436Z,100879.58
2019-03-30T11:45:06.336Z,100878.48
2019-03-30T11:46:11.026Z,100879.67
2019-03-30T11:47:15.794Z,100878.44
2019-03-30T11:48:20.241Z,100875.00
2019-03-30T11:49:24.609Z,100877.25
2019-03-30T11:50:29.062Z,100872.64
2019-03-30T11:51:34.003Z,100871.16
2019-03-30T11:52:39.192Z,100869.53
2019-03-30T11:53:43.808Z,100863.81
2019-03-30T11:54:48.588Z,100862.18
2019-03-30T11:55:53.195Z,100866.36
2019-03-30T11:56:57.637Z,100863.50
2019-03-30T11:58:02.400Z,100863.74
2019-03-30T11:59:07.184Z,100859.28
2019-03-30T12:00:11.995Z,100858.30
2019-03-30T12:01:16.448Z,100855.94
2019-03-30T12:02:27.756Z,100851.06
2019-03-30T12:03:27.251Z,100849.46
2019-03-30T12:04:31.952Z,100849.97
2019-03-30T12:05:36.978Z,100852.38
2019-03-30T12:06:41.496Z,100845.02
2019-03-30T12:07:46.184Z,100846.79
2019-03-30T12:08:51.188Z,100846.83
2019-03-30T12:09:56.138Z,100847.36
2019-03-30T12:11:00.831Z,100842.36
2019-03-30T12:12:05.594Z,100839.65
2019-03-30T12:13:10.036Z,100837.02
2019-03-30T12:14:14.984Z,100839.91
2019-03-30T12:15:19.517Z,100839.03
2019-03-30T12:16:24.519Z,100827.91
2019-03-30T12:17:29.465Z,100833.53
2019-03-30T12:18:33.830Z,100834.41
2019-03-30T12:19:38.516Z,100830.66
2019-03-30T12:20:43.391Z,100827.80